Time;durP1;ratioP1;P1;durP2;ratioP2;P2;SDS_P1;SDS_P2;PMS_P1;PMS_P2;Temp;Humidity;BMP_temperature;BMP_pressure;BME280_temperature;BME280_humidity;BME280_pressure;Samples;Min_cycle;Max_cycle;Signal;HPM_P1;HPM_P2
2022/05/16 00:00:22;;;;;;;;;9.25;9.25;;;;;;;;5032527;28;45417;-64
2022/05/16 00:02:47;;;;;;;;;9.00;9.00;;;;;;;;5033760;28;45501;-64
2022/05/16 00:05:13;;;;;;;;;9.50;8.50;;;;;;;;5033211;28;45401;-64
2022/05/16 00:07:38;;;;;;;;;13.75;10.00;;;;;;;;5032207;28;45494;-64
2022/05/16 00:10:04;;;;;;;;;8.75;8.75;;;;;;;;5032128;28;45548;-64
2022/05/16 00:12:29;;;;;;;;;14.25;10.50;;;;;;;;5031237;28;45397;-64
2022/05/16 00:14:55;;;;;;;;;10.75;10.25;;;;;;;;5029908;28;45398;-64
2022/05/16 00:17:20;;;;;;;;;14.50;11.75;;;;;;;;5033733;28;45856;-64
2022/05/16 00:19:45;;;;;;;;;11.75;11.75;;;;;;;;5032199;28;45357;-64
2022/05/16 00:22:11;;;;;;;;;12.75;11.50;;;;;;;;5032422;28;45480;-63
2022/05/16 00:24:39;;;;;;;;;10.25;10.25;;;;;;;;5032425;28;45390;-63
2022/05/16 00:27:04;;;;;;;;;11.00;10.00;;;;;;;;5046973;28;47411;-64
2022/05/16 00:29:29;;;;;;;;;12.75;12.75;;;;;;;;5032836;28;45407;-64
2022/05/16 00:31:55;;;;;;;;;11.25;11.25;;;;;;;;5031716;28;45469;-64
2022/05/16 00:34:20;;;;;;;;;10.50;10.50;;;;;;;;5032235;28;45310;-64
2022/05/16 00:36:49;;;;;;;;;10.75;9.50;;;;;;;;5030515;28;47560;-64
2022/05/16 00:39:18;;;;;;;;;8.75;8.75;;;;;;;;5030617;28;45461;-64
2022/05/16 00:41:44;;;;;;;;;13.25;10.50;;;;;;;;5034058;28;45366;-64
2022/05/16 00:44:10;;;;;;;;;7.00;7.00;;;;;;;;5032499;28;45502;-65
2022/05/16 00:46:35;;;;;;;;;8.75;8.75;;;;;;;;5031694;28;46302;-64
2022/05/16 00:49:01;;;;;;;;;7.50;6.25;;;;;;;;5031986;28;45560;-65
2022/05/16 00:51:31;;;;;;;;;7.00;6.00;;;;;;;;5032047;28;45449;-64
2022/05/16 00:54:01;;;;;;;;;5.25;5.25;;;;;;;;5032819;28;45295;-64
2022/05/16 00:56:27;;;;;;;;;5.00;4.50;;;;;;;;5029618;28;48535;-64
2022/05/16 00:58:53;;;;;;;;;3.25;3.00;;;;;;;;5030343;28;45639;-64
2022/05/16 01:06:47;;;;;;;;;4.00;4.00;;;;;;;;5035032;28;45537;-65
2022/05/16 01:09:12;;;;;;;;;3.75;3.50;;;;;;;;5035180;28;45271;-64
2022/05/16 01:11:38;;;;;;;;;4.00;4.00;;;;;;;;5036150;28;45319;-63
2022/05/16 01:14:04;;;;;;;;;4.00;4.00;;;;;;;;5034809;28;46163;-63
2022/05/16 01:16:29;;;;;;;;;4.50;4.50;;;;;;;;5034770;28;46361;-64
2022/05/16 01:18:54;;;;;;;;;5.00;5.00;;;;;;;;5035082;28;45318;-64
2022/05/16 01:21:32;;;;;;;;;3.00;3.00;;;;;;;;5035218;28;45539;-64
2022/05/16 01:24:00;;;;;;;;;4.75;3.25;;;;;;;;5035286;28;45362;-63
2022/05/16 01:26:26;;;;;;;;;3.25;2.25;;;;;;;;5034793;28;45578;-64
2022/05/16 01:28:53;;;;;;;;;3.25;3.25;;;;;;;;5034680;28;45406;-64
2022/05/16 01:31:18;;;;;;;;;5.75;3.75;;;;;;;;5033142;28;45542;-66
2022/05/16 01:33:43;;;;;;;;;3.00;3.00;;;;;;;;5025013;28;45393;-65
2022/05/16 01:36:08;;;;;;;;;3.00;3.00;;;;;;;;5022648;28;45497;-64
2022/05/16 01:38:34;;;;;;;;;4.00;4.00;;;;;;;;5034686;28;45739;-65
2022/05/16 01:41:02;;;;;;;;;4.75;3.00;;;;;;;;5032740;28;45422;-64
2022/05/16 01:43:32;;;;;;;;;4.00;4.00;;;;;;;;5032913;28;45466;-63
2022/05/16 01:45:57;;;;;;;;;4.50;4.50;;;;;;;;5032206;28;46303;-65
2022/05/16 01:48:23;;;;;;;;;8.00;3.00;;;;;;;;5029987;28;45262;-65
2022/05/16 01:50:49;;;;;;;;;5.50;4.50;;;;;;;;5030175;28;45867;-64
2022/05/16 01:53:15;;;;;;;;;4.00;3.75;;;;;;;;5030619;28;45869;-63
2022/05/16 01:55:40;;;;;;;;;4.25;4.00;;;;;;;;5018675;28;46437;-65
2022/05/16 01:58:06;;;;;;;;;5.00;4.50;;;;;;;;5031891;28;45456;-64
2022/05/16 02:00:32;;;;;;;;;4.25;4.25;;;;;;;;5029906;28;45542;-65
2022/05/16 02:03:01;;;;;;;;;5.00;4.75;;;;;;;;5029876;28;45408;-64
2022/05/16 02:05:27;;;;;;;;;4.25;4.25;;;;;;;;5029394;28;45759;-65
2022/05/16 02:07:52;;;;;;;;;7.50;7.50;;;;;;;;5032352;28;45427;-64
2022/05/16 02:10:19;;;;;;;;;5.25;4.25;;;;;;;;5032863;28;45600;-64
2022/05/16 02:12:45;;;;;;;;;4.25;4.25;;;;;;;;5033940;28;45524;-64
2022/05/16 02:15:11;;;;;;;;;9.00;6.75;;;;;;;;5031763;28;46341;-65
2022/05/16 02:17:37;;;;;;;;;5.50;5.50;;;;;;;;5027738;28;45386;-64
2022/05/16 02:20:02;;;;;;;;;7.00;6.00;;;;;;;;5018436;28;45332;-66
2022/05/16 02:25:12;;;;;;;;;4.75;4.75;;;;;;;;5027106;28;45928;-64
2022/05/16 02:27:38;;;;;;;;;4.25;4.00;;;;;;;;5023720;28;45803;-65
2022/05/16 02:30:03;;;;;;;;;6.75;6.75;;;;;;;;5022762;28;45752;-63
2022/05/16 02:32:29;;;;;;;;;4.00;4.00;;;;;;;;5024997;28;45465;-64
2022/05/16 02:34:55;;;;;;;;;8.50;7.25;;;;;;;;5019499;28;45485;-63
2022/05/16 02:37:20;;;;;;;;;6.25;6.25;;;;;;;;5026060;28;45489;-65
2022/05/16 02:39:46;;;;;;;;;9.50;7.75;;;;;;;;5017558;28;45774;-65
2022/05/16 02:42:14;;;;;;;;;9.25;9.25;;;;;;;;5017552;28;45466;-64
2022/05/16 02:44:39;;;;;;;;;9.25;6.75;;;;;;;;5016542;28;45599;-64
2022/05/16 02:47:05;;;;;;;;;11.00;11.00;;;;;;;;5017340;28;45379;-65
2022/05/16 02:49:31;;;;;;;;;9.25;8.00;;;;;;;;5021719;28;45480;-63
2022/05/16 02:51:56;;;;;;;;;9.25;8.25;;;;;;;;5022511;28;45552;-64
2022/05/16 02:54:21;;;;;;;;;9.00;9.00;;;;;;;;5016069;28;46467;-65
2022/05/16 02:56:46;;;;;;;;;5.75;5.25;;;;;;;;5015321;28;45330;-64
2022/05/16 02:59:11;;;;;;;;;6.00;6.00;;;;;;;;5024416;28;45564;-63
2022/05/16 03:01:37;;;;;;;;;9.75;9.75;;;;;;;;5031021;28;45318;-64
2022/05/16 03:04:02;;;;;;;;;8.75;8.75;;;;;;;;5024998;28;45512;-65
2022/05/16 03:06:27;;;;;;;;;9.50;8.75;;;;;;;;5018063;28;45524;-64
2022/05/16 03:08:53;;;;;;;;;8.75;7.75;;;;;;;;5016820;28;45429;-64
2022/05/16 03:11:19;;;;;;;;;6.00;6.00;;;;;;;;5016919;28;45524;-65
2022/05/16 03:13:44;;;;;;;;;11.25;9.50;;;;;;;;5016945;28;45801;-65
2022/05/16 03:16:09;;;;;;;;;11.00;10.00;;;;;;;;5021343;28;45409;-66
2022/05/16 03:18:34;;;;;;;;;10.75;9.75;;;;;;;;5028395;28;45495;-64
2022/05/16 03:20:59;;;;;;;;;11.00;11.00;;;;;;;;5030561;28;45426;-64
2022/05/16 03:23:25;;;;;;;;;6.25;6.00;;;;;;;;5030823;28;45603;-64
2022/05/16 03:25:50;;;;;;;;;12.00;11.50;;;;;;;;5028451;28;45342;-64
2022/05/16 03:28:15;;;;;;;;;13.75;11.00;;;;;;;;5027664;28;45369;-63
2022/05/16 03:30:42;;;;;;;;;11.00;11.00;;;;;;;;5019644;28;45487;-63
2022/05/16 03:33:07;;;;;;;;;9.75;9.75;;;;;;;;5016170;28;47644;-63
2022/05/16 03:35:32;;;;;;;;;13.50;13.50;;;;;;;;5019642;28;45783;-63
2022/05/16 03:37:58;;;;;;;;;14.25;13.00;;;;;;;;5019949;28;45609;-64
2022/05/16 03:40:42;;;;;;;;;13.50;13.50;;;;;;;;5018865;28;45426;-64
2022/05/16 03:43:07;;;;;;;;;13.00;13.00;;;;;;;;5019986;28;46794;-63
2022/05/16 03:45:32;;;;;;;;;8.75;7.75;;;;;;;;5018466;28;49830;-64
2022/05/16 03:47:57;;;;;;;;;14.25;13.00;;;;;;;;5017619;28;45489;-64
2022/05/16 03:50:22;;;;;;;;;17.25;15.75;;;;;;;;5019287;28;45474;-64
2022/05/16 03:52:48;;;;;;;;;18.00;16.00;;;;;;;;5019804;28;45679;-64
2022/05/16 03:55:15;;;;;;;;;13.75;11.75;;;;;;;;5023701;28;45322;-64
2022/05/16 03:57:41;;;;;;;;;16.25;13.75;;;;;;;;5031380;28;47818;-63
2022/05/16 04:00:09;;;;;;;;;16.00;14.75;;;;;;;;5030451;28;45610;-63
2022/05/16 04:02:35;;;;;;;;;12.25;12.25;;;;;;;;5034131;28;47029;-63
2022/05/16 04:05:00;;;;;;;;;16.50;16.50;;;;;;;;5027582;28;46162;-63
2022/05/16 04:07:25;;;;;;;;;17.75;15.75;;;;;;;;5038993;28;45503;-63
2022/05/16 04:09:51;;;;;;;;;15.75;13.75;;;;;;;;5020589;28;45515;-63
2022/05/16 04:12:16;;;;;;;;;14.25;14.25;;;;;;;;5031358;28;46101;-64
2022/05/16 04:14:41;;;;;;;;;15.00;15.00;;;;;;;;5034515;28;45816;-65
2022/05/16 04:17:07;;;;;;;;;16.00;15.00;;;;;;;;5032244;28;45871;-64
2022/05/16 04:19:32;;;;;;;;;17.25;17.25;;;;;;;;5032324;28;45524;-63
2022/05/16 04:21:57;;;;;;;;;16.75;16.75;;;;;;;;5031798;28;46465;-63
2022/05/16 04:24:22;;;;;;;;;18.75;18.00;;;;;;;;5030368;28;45465;-62
2022/05/16 04:26:48;;;;;;;;;15.00;12.75;;;;;;;;5033395;28;45321;-64
2022/05/16 04:29:13;;;;;;;;;11.25;11.25;;;;;;;;5031541;28;45239;-63
2022/05/16 04:31:38;;;;;;;;;18.00;16.75;;;;;;;;5031757;28;46581;-63
2022/05/16 04:34:09;;;;;;;;;18.25;15.50;;;;;;;;5031893;28;45468;-63
2022/05/16 04:36:34;;;;;;;;;21.25;17.75;;;;;;;;5032201;28;45689;-63
2022/05/16 04:38:59;;;;;;;;;15.75;15.00;;;;;;;;5031796;28;45987;-63
2022/05/16 04:44:08;;;;;;;;;15.50;15.50;;;;;;;;5032310;28;45577;-64
2022/05/16 04:46:34;;;;;;;;;15.75;15.75;;;;;;;;5030560;28;45405;-64
2022/05/16 04:48:59;;;;;;;;;18.00;16.25;;;;;;;;5030354;28;45400;-65
2022/05/16 04:51:24;;;;;;;;;15.75;14.50;;;;;;;;5031734;28;45588;-64
2022/05/16 04:53:49;;;;;;;;;13.00;13.00;;;;;;;;5033120;28;45401;-64
2022/05/16 04:56:14;;;;;;;;;15.50;14.75;;;;;;;;5030785;28;45530;-64
2022/05/16 04:58:40;;;;;;;;;17.25;17.25;;;;;;;;5031649;28;45709;-63
2022/05/16 05:01:05;;;;;;;;;22.25;20.25;;;;;;;;5030008;28;45638;-64
2022/05/16 05:03:30;;;;;;;;;18.00;17.25;;;;;;;;5031856;28;45669;-65
2022/05/16 05:05:56;;;;;;;;;18.75;18.75;;;;;;;;5031512;28;46013;-66
2022/05/16 05:08:21;;;;;;;;;19.75;19.75;;;;;;;;5030406;28;45849;-64
2022/05/16 05:16:17;;;;;;;;;22.00;22.00;;;;;;;;5031607;28;45504;-63
2022/05/16 05:18:43;;;;;;;;;23.00;23.00;;;;;;;;5031287;28;45494;-64
2022/05/16 05:21:08;;;;;;;;;20.50;20.00;;;;;;;;5031438;28;46031;-64
2022/05/16 05:23:34;;;;;;;;;19.25;18.25;;;;;;;;5033528;28;45335;-65
2022/05/16 05:26:00;;;;;;;;;22.50;20.00;;;;;;;;5029397;28;45592;-64
2022/05/16 05:28:25;;;;;;;;;20.25;18.50;;;;;;;;5029416;28;45352;-64
2022/05/16 05:30:50;;;;;;;;;19.00;18.25;;;;;;;;5029374;28;47959;-65
2022/05/16 05:33:15;;;;;;;;;21.50;21.50;;;;;;;;5031303;28;45657;-64
2022/05/16 05:35:41;;;;;;;;;23.75;21.50;;;;;;;;5033729;28;45358;-64
2022/05/16 05:38:06;;;;;;;;;20.75;16.00;;;;;;;;5031075;28;45371;-65
2022/05/16 05:40:31;;;;;;;;;19.00;19.00;;;;;;;;5030448;28;46129;-64
2022/05/16 05:43:01;;;;;;;;;17.00;17.00;;;;;;;;5033641;28;45617;-63
2022/05/16 05:45:26;;;;;;;;;20.25;20.25;;;;;;;;5033110;28;45406;-64
2022/05/16 05:47:51;;;;;;;;;21.50;19.75;;;;;;;;5035599;28;45595;-65
2022/05/16 05:50:16;;;;;;;;;23.75;20.75;;;;;;;;5035211;28;46318;-64
2022/05/16 05:52:42;;;;;;;;;18.00;18.00;;;;;;;;5033575;28;45568;-65
2022/05/16 05:55:07;;;;;;;;;23.75;20.75;;;;;;;;5034495;28;45473;-64
2022/05/16 05:57:33;;;;;;;;;21.50;20.25;;;;;;;;5032433;28;45479;-64
2022/05/16 05:59:58;;;;;;;;;20.00;19.50;;;;;;;;5031736;28;47293;-65
2022/05/16 06:02:24;;;;;;;;;19.75;17.50;;;;;;;;5036309;28;45308;-63
2022/05/16 06:04:50;;;;;;;;;18.50;15.75;;;;;;;;5032790;28;45476;-64
2022/05/16 06:07:15;;;;;;;;;20.00;20.00;;;;;;;;5031954;28;45393;-63
2022/05/16 06:09:41;;;;;;;;;18.75;17.25;;;;;;;;5027546;28;46188;-66
2022/05/16 06:12:07;;;;;;;;;18.75;17.75;;;;;;;;5027593;28;45391;-64
2022/05/16 06:14:32;;;;;;;;;21.00;20.00;;;;;;;;5017132;28;45405;-65
2022/05/16 06:16:58;;;;;;;;;20.75;17.25;;;;;;;;5034937;28;45834;-65
2022/05/16 06:19:23;;;;;;;;;17.25;17.25;;;;;;;;5017645;28;46642;-64
2022/05/16 06:21:49;;;;;;;;;20.50;20.50;;;;;;;;5026085;28;45480;-65
2022/05/16 06:26:58;;;;;;;;;17.25;17.25;;;;;;;;5027584;28;45523;-64
2022/05/16 06:29:24;;;;;;;;;19.50;18.00;;;;;;;;5024222;28;45488;-65
2022/05/16 06:31:49;;;;;;;;;19.50;18.25;;;;;;;;5024203;28;45444;-65
2022/05/16 06:34:15;;;;;;;;;16.00;15.75;;;;;;;;5024129;28;45356;-65
2022/05/16 06:36:41;;;;;;;;;17.25;16.75;;;;;;;;5017461;28;45651;-64
2022/05/16 06:39:06;;;;;;;;;16.50;13.75;;;;;;;;5020205;28;45917;-66
2022/05/16 06:41:34;;;;;;;;;16.25;15.25;;;;;;;;5024358;28;45745;-65
2022/05/16 06:44:01;;;;;;;;;19.00;18.75;;;;;;;;5019008;28;45596;-65
2022/05/16 06:46:26;;;;;;;;;19.25;18.00;;;;;;;;5026881;28;45492;-65
2022/05/16 06:48:51;;;;;;;;;20.75;19.75;;;;;;;;5033819;28;46659;-65
2022/05/16 06:51:17;;;;;;;;;13.00;13.00;;;;;;;;5020402;28;45508;-64
2022/05/16 06:53:43;;;;;;;;;19.00;16.25;;;;;;;;5022523;28;45484;-65
2022/05/16 06:56:08;;;;;;;;;18.75;17.75;;;;;;;;5029732;28;45749;-64
2022/05/16 06:58:34;;;;;;;;;17.75;16.50;;;;;;;;5028603;28;45917;-64
2022/05/16 07:00:59;;;;;;;;;19.50;17.50;;;;;;;;5027496;28;45357;-64
2022/05/16 07:03:24;;;;;;;;;14.50;13.25;;;;;;;;5028685;28;45483;-64
2022/05/16 07:05:51;;;;;;;;;15.25;13.00;;;;;;;;5023284;28;45616;-63
2022/05/16 07:08:17;;;;;;;;;13.75;12.25;;;;;;;;5029748;28;45739;-63
2022/05/16 07:10:42;;;;;;;;;12.00;12.00;;;;;;;;5027016;28;45535;-63
2022/05/16 07:13:08;;;;;;;;;15.25;12.50;;;;;;;;5028211;28;45512;-63
2022/05/16 07:15:33;;;;;;;;;16.00;13.25;;;;;;;;5029066;28;45421;-63
2022/05/16 07:17:59;;;;;;;;;17.25;13.50;;;;;;;;5031809;28;45605;-64
2022/05/16 07:20:25;;;;;;;;;9.50;9.50;;;;;;;;5021389;28;46376;-66
2022/05/16 07:22:50;;;;;;;;;12.50;12.50;;;;;;;;5021644;28;45462;-65
2022/05/16 07:25:17;;;;;;;;;13.50;12.50;;;;;;;;5025977;28;45457;-66
2022/05/16 07:27:58;;;;;;;;;11.25;10.00;;;;;;;;5028777;28;46508;-65
2022/05/16 07:30:25;;;;;;;;;18.00;16.25;;;;;;;;5017251;28;45481;-65
2022/05/16 07:32:51;;;;;;;;;11.00;11.00;;;;;;;;5030892;28;45347;-64
2022/05/16 07:35:22;;;;;;;;;12.75;11.75;;;;;;;;5029244;28;45349;-64
2022/05/16 07:37:48;;;;;;;;;13.00;11.25;;;;;;;;5028319;28;46518;-66
2022/05/16 07:40:13;;;;;;;;;12.50;12.50;;;;;;;;5042049;28;45495;-66
2022/05/16 07:42:39;;;;;;;;;11.50;10.75;;;;;;;;5036012;28;45337;-67
2022/05/16 07:45:06;;;;;;;;;13.25;13.25;;;;;;;;5033709;28;45461;-65
2022/05/16 07:47:31;;;;;;;;;9.75;9.75;;;;;;;;5033271;28;48297;-64
2022/05/16 07:49:57;;;;;;;;;11.00;10.75;;;;;;;;5030804;28;46874;-64
2022/05/16 07:52:22;;;;;;;;;12.75;12.50;;;;;;;;5028240;28;45749;-66
2022/05/16 07:54:48;;;;;;;;;15.00;12.75;;;;;;;;5019882;28;45482;-63
2022/05/16 07:57:13;;;;;;;;;11.25;11.00;;;;;;;;5031427;28;45789;-67
2022/05/16 07:59:39;;;;;;;;;13.75;10.00;;;;;;;;5034150;28;45512;-66
2022/05/16 08:02:04;;;;;;;;;11.75;10.00;;;;;;;;5032298;28;45456;-66
2022/05/16 08:04:29;;;;;;;;;11.75;11.75;;;;;;;;5031780;28;45377;-66
2022/05/16 08:06:54;;;;;;;;;11.00;11.00;;;;;;;;5032291;28;46424;-65
2022/05/16 08:12:04;;;;;;;;;16.50;12.00;;;;;;;;5032166;28;45591;-66
2022/05/16 08:14:29;;;;;;;;;6.50;6.00;;;;;;;;5034475;28;45368;-66
2022/05/16 08:16:54;;;;;;;;;10.00;8.50;;;;;;;;5032068;28;45670;-66
2022/05/16 08:19:19;;;;;;;;;8.25;8.25;;;;;;;;5031748;28;45342;-65
2022/05/16 08:21:48;;;;;;;;;11.00;10.25;;;;;;;;5032496;28;45515;-65
2022/05/16 08:24:13;;;;;;;;;11.50;11.50;;;;;;;;5016708;28;45290;-64
2022/05/16 08:26:38;;;;;;;;;8.75;7.25;;;;;;;;5034187;28;46025;-65
2022/05/16 08:29:04;;;;;;;;;10.75;10.00;;;;;;;;5031879;28;45642;-66
2022/05/16 08:31:29;;;;;;;;;8.75;8.75;;;;;;;;5031836;28;45480;-66
2022/05/16 08:33:56;;;;;;;;;11.00;10.50;;;;;;;;5030707;28;45585;-66
2022/05/16 08:41:51;;;;;;;;;10.50;10.50;;;;;;;;5030103;28;45469;-66
2022/05/16 08:44:35;;;;;;;;;8.75;7.25;;;;;;;;5032991;28;45486;-66
2022/05/16 08:47:15;;;;;;;;;11.00;11.00;;;;;;;;5031601;28;45685;-65
2022/05/16 08:49:42;;;;;;;;;9.00;7.50;;;;;;;;5031692;28;45409;-65
2022/05/16 08:52:11;;;;;;;;;10.00;7.50;;;;;;;;5032738;28;45466;-65
2022/05/16 08:54:42;;;;;;;;;8.50;7.50;;;;;;;;5030341;28;45552;-65
2022/05/16 08:57:11;;;;;;;;;9.00;8.00;;;;;;;;5031635;28;45728;-65
2022/05/16 08:59:39;;;;;;;;;10.00;9.50;;;;;;;;5033755;28;45437;-66
2022/05/16 09:02:08;;;;;;;;;8.75;8.75;;;;;;;;5031640;28;45551;-66
2022/05/16 09:04:43;;;;;;;;;7.50;5.25;;;;;;;;5031388;28;45546;-65
2022/05/16 09:07:17;;;;;;;;;12.25;7.25;;;;;;;;5030231;28;47832;-66
2022/05/16 09:09:42;;;;;;;;;10.25;7.25;;;;;;;;5031586;28;45420;-66
2022/05/16 09:12:10;;;;;;;;;8.50;7.75;;;;;;;;5031690;28;45568;-66
2022/05/16 09:14:42;;;;;;;;;9.50;9.50;;;;;;;;5033813;28;45298;-66
2022/05/16 09:17:33;;;;;;;;;7.25;7.00;;;;;;;;5026952;28;47654;-66
2022/05/16 09:20:01;;;;;;;;;7.50;7.50;;;;;;;;5032383;28;46173;-66
2022/05/16 09:22:53;;;;;;;;;7.25;7.00;;;;;;;;5030358;28;45626;-65
2022/05/16 09:25:23;;;;;;;;;10.25;6.75;;;;;;;;4951133;28;45533;-66
2022/05/16 09:30:38;;;;;;;;;8.00;8.00;;;;;;;;4974166;28;45498;-66
2022/05/16 09:33:09;;;;;;;;;9.00;9.00;;;;;;;;4974666;28;45620;-66
2022/05/16 09:35:50;;;;;;;;;7.50;6.50;;;;;;;;4974834;28;45437;-66
2022/05/16 09:38:16;;;;;;;;;9.75;8.50;;;;;;;;4974697;28;46283;-66
2022/05/16 09:40:53;;;;;;;;;6.75;6.50;;;;;;;;4974253;28;45563;-66
2022/05/16 09:43:20;;;;;;;;;7.00;7.00;;;;;;;;4957869;28;45578;-67
2022/05/16 09:45:49;;;;;;;;;7.75;7.75;;;;;;;;4974516;28;45491;-67
2022/05/16 09:48:15;;;;;;;;;7.25;6.00;;;;;;;;4974301;28;46155;-67
2022/05/16 09:50:41;;;;;;;;;7.25;7.25;;;;;;;;4970694;28;45740;-67
2022/05/16 09:53:09;;;;;;;;;6.50;6.50;;;;;;;;4974081;28;45792;-66
2022/05/16 09:55:54;;;;;;;;;9.00;8.00;;;;;;;;4974101;28;45584;-66
2022/05/16 09:58:20;;;;;;;;;6.50;6.50;;;;;;;;4973983;28;45728;-65
2022/05/16 10:00:56;;;;;;;;;8.00;6.25;;;;;;;;4973955;28;45638;-65
2022/05/16 10:03:22;;;;;;;;;6.00;6.00;;;;;;;;5051558;27;45595;-67
2022/05/16 10:05:48;;;;;;;;;5.00;5.00;;;;;;;;5027133;28;45398;-67
2022/05/16 10:08:22;;;;;;;;;6.25;6.25;;;;;;;;5029061;28;45710;-66
2022/05/16 10:10:47;;;;;;;;;6.25;5.25;;;;;;;;5032269;28;45576;-66
2022/05/16 10:13:12;;;;;;;;;7.25;7.25;;;;;;;;5031792;28;45488;-66
2022/05/16 10:15:37;;;;;;;;;6.00;6.00;;;;;;;;5029758;28;45298;-66
2022/05/16 10:18:05;;;;;;;;;8.75;7.75;;;;;;;;5029254;28;45757;-66
2022/05/16 10:20:32;;;;;;;;;6.50;5.75;;;;;;;;5029669;28;45570;-67
2022/05/16 10:23:02;;;;;;;;;7.25;6.75;;;;;;;;5032581;28;45734;-67
2022/05/16 10:25:31;;;;;;;;;7.50;5.25;;;;;;;;5032313;28;45472;-66
2022/05/16 10:27:58;;;;;;;;;6.00;6.00;;;;;;;;5029155;28;47816;-66
2022/05/16 10:30:25;;;;;;;;;4.25;4.25;;;;;;;;5026933;28;45730;-66
2022/05/16 10:35:39;;;;;;;;;3.25;3.25;;;;;;;;5027749;28;45351;-66
2022/05/16 10:38:15;;;;;;;;;5.25;4.25;;;;;;;;5030040;28;47603;-66
2022/05/16 10:40:42;;;;;;;;;4.00;4.00;;;;;;;;5031814;28;45537;-67
2022/05/16 10:43:13;;;;;;;;;4.25;4.25;;;;;;;;5030877;28;45508;-67
2022/05/16 10:45:42;;;;;;;;;3.00;3.00;;;;;;;;5033427;28;45443;-66
2022/05/16 10:48:14;;;;;;;;;4.00;2.75;;;;;;;;5033271;28;45762;-66
2022/05/16 10:50:50;;;;;;;;;3.75;3.75;;;;;;;;5033202;28;45470;-67
2022/05/16 10:53:35;;;;;;;;;3.75;2.75;;;;;;;;5033558;28;45307;-66
2022/05/16 10:56:11;;;;;;;;;3.75;3.75;;;;;;;;5031347;28;45691;-66
2022/05/16 10:58:39;;;;;;;;;3.00;2.25;;;;;;;;5033211;28;46550;-66
2022/05/16 11:01:22;;;;;;;;;3.50;3.00;;;;;;;;5035132;28;45414;-66
2022/05/16 11:03:56;;;;;;;;;2.75;2.75;;;;;;;;5034514;28;45555;-66
2022/05/16 11:06:27;;;;;;;;;5.00;3.75;;;;;;;;5033262;28;45463;-67
2022/05/16 11:09:05;;;;;;;;;2.25;2.25;;;;;;;;5028634;28;48131;-67
2022/05/16 11:11:31;;;;;;;;;3.25;3.25;;;;;;;;5023979;28;45533;-65
2022/05/16 11:14:04;;;;;;;;;4.00;2.50;;;;;;;;5030123;28;45490;-66
2022/05/16 11:16:33;;;;;;;;;5.25;4.00;;;;;;;;5033625;28;45342;-66
2022/05/16 11:19:13;;;;;;;;;3.00;3.00;;;;;;;;5035047;28;45703;-67
2022/05/16 11:22:08;;;;;;;;;3.75;3.75;;;;;;;;5027766;28;45383;-65
2022/05/16 11:24:52;;;;;;;;;3.00;3.00;;;;;;;;5016417;28;45635;-66
2022/05/16 11:27:37;;;;;;;;;3.75;3.00;;;;;;;;5032408;28;45621;-66
2022/05/16 11:30:02;;;;;;;;;2.75;2.75;;;;;;;;5032558;28;46758;-65
2022/05/16 11:32:39;;;;;;;;;2.50;2.50;;;;;;;;5032734;28;45354;-65
2022/05/16 11:35:11;;;;;;;;;2.00;2.00;;;;;;;;5033143;28;45757;-67
2022/05/16 11:37:47;;;;;;;;;2.50;1.75;;;;;;;;5030927;28;45319;-66
2022/05/16 11:40:15;;;;;;;;;3.00;3.00;;;;;;;;5028488;28;46669;-66
2022/05/16 11:42:48;;;;;;;;;3.00;3.00;;;;;;;;5030205;28;45586;-67
2022/05/16 11:45:24;;;;;;;;;3.00;3.00;;;;;;;;5030990;28;45959;-64
2022/05/16 11:47:56;;;;;;;;;4.00;4.00;;;;;;;;5031494;28;45723;-66
2022/05/16 11:50:25;;;;;;;;;5.75;5.00;;;;;;;;5029197;28;45637;-66
2022/05/16 11:53:06;;;;;;;;;3.25;3.25;;;;;;;;5031167;28;45363;-67
2022/05/16 12:01:07;;;;;;;;;3.00;3.00;;;;;;;;5024203;28;45580;-65
2022/05/16 12:03:39;;;;;;;;;4.25;3.25;;;;;;;;5023157;28;45449;-65
2022/05/16 12:06:13;;;;;;;;;2.25;2.25;;;;;;;;5020004;28;45942;-65
2022/05/16 12:08:41;;;;;;;;;2.00;2.00;;;;;;;;5012946;28;45580;-65
2022/05/16 12:11:06;;;;;;;;;2.25;2.25;;;;;;;;5024311;28;45649;-66
2022/05/16 12:13:33;;;;;;;;;4.00;4.00;;;;;;;;5024278;28;45665;-66
2022/05/16 12:16:17;;;;;;;;;2.25;2.25;;;;;;;;5024507;28;45560;-65
2022/05/16 12:18:44;;;;;;;;;3.75;3.00;;;;;;;;5027545;28;45513;-66
2022/05/16 12:21:21;;;;;;;;;2.00;2.00;;;;;;;;5027625;28;46129;-66
2022/05/16 12:23:50;;;;;;;;;3.00;3.00;;;;;;;;5024649;28;45667;-65
2022/05/16 12:26:27;;;;;;;;;4.00;2.75;;;;;;;;5024947;28;45701;-65
2022/05/16 12:29:18;;;;;;;;;3.75;2.75;;;;;;;;5025993;28;45445;-64
2022/05/16 12:31:49;;;;;;;;;2.75;2.00;;;;;;;;4950322;28;46356;-65
2022/05/16 12:34:40;;;;;;;;;3.50;3.00;;;;;;;;4953027;28;45389;-65
2022/05/16 12:37:07;;;;;;;;;2.75;2.75;;;;;;;;4942628;28;45720;-65
2022/05/16 12:39:38;;;;;;;;;3.00;2.00;;;;;;;;4947842;28;45594;-65
2022/05/16 12:42:25;;;;;;;;;3.50;2.75;;;;;;;;4947466;28;46567;-65
2022/05/16 12:44:57;;;;;;;;;2.50;2.50;;;;;;;;4931499;28;45555;-66
2022/05/16 12:47:32;;;;;;;;;1.00;1.00;;;;;;;;4947701;28;45423;-66
2022/05/16 12:50:05;;;;;;;;;3.00;3.00;;;;;;;;4950672;28;45721;-65
2022/05/16 12:52:40;;;;;;;;;2.00;2.00;;;;;;;;4953917;28;46199;-65
2022/05/16 12:55:05;;;;;;;;;2.00;2.00;;;;;;;;4941802;28;45490;-65
2022/05/16 12:57:33;;;;;;;;;4.00;3.00;;;;;;;;4950165;28;45325;-65
2022/05/16 13:00:08;;;;;;;;;2.75;2.75;;;;;;;;4950929;28;45412;-65
2022/05/16 13:02:33;;;;;;;;;4.50;3.50;;;;;;;;4950860;28;45754;-66
2022/05/16 13:05:19;;;;;;;;;2.00;2.00;;;;;;;;4955609;28;45417;-66
2022/05/16 13:07:56;;;;;;;;;2.00;2.00;;;;;;;;4906913;28;45719;-66
2022/05/16 13:10:40;;;;;;;;;3.00;3.00;;;;;;;;4952012;28;45587;-65
2022/05/16 13:13:14;;;;;;;;;3.75;2.00;;;;;;;;4955251;28;45867;-64
2022/05/16 13:15:58;;;;;;;;;3.25;3.25;;;;;;;;4954981;28;45576;-66
2022/05/16 13:18:26;;;;;;;;;3.75;2.25;;;;;;;;4954955;28;45520;-66
2022/05/16 13:20:54;;;;;;;;;2.00;2.00;;;;;;;;4955143;28;45520;-66
2022/05/16 13:23:19;;;;;;;;;1.75;1.75;;;;;;;;4954718;28;45982;-65
2022/05/16 13:31:33;;;;;;;;;2.75;1.25;;;;;;;;4955244;28;45307;-65
2022/05/16 13:33:59;;;;;;;;;2.00;2.00;;;;;;;;4955238;28;47525;-66
2022/05/16 13:36:25;;;;;;;;;2.00;2.00;;;;;;;;4954756;28;45467;-65
2022/05/16 13:38:51;;;;;;;;;3.00;2.00;;;;;;;;4953301;28;45784;-66
2022/05/16 13:41:21;;;;;;;;;4.25;1.25;;;;;;;;4942409;28;45771;-66
2022/05/16 13:43:48;;;;;;;;;2.00;2.00;;;;;;;;4958184;28;46660;-65
2022/05/16 13:46:13;;;;;;;;;1.50;1.50;;;;;;;;5042435;28;45812;-64
2022/05/16 13:48:40;;;;;;;;;1.00;1.00;;;;;;;;5034766;28;45795;-65
2022/05/16 13:51:05;;;;;;;;;1.00;1.00;;;;;;;;5030647;28;45457;-65
2022/05/16 13:53:32;;;;;;;;;2.00;2.00;;;;;;;;5041929;28;47261;-65
2022/05/16 13:55:57;;;;;;;;;1.75;1.75;;;;;;;;5035413;28;45508;-65
2022/05/16 13:58:25;;;;;;;;;1.00;1.00;;;;;;;;5046803;28;45440;-66
2022/05/16 14:01:08;;;;;;;;;1.50;1.50;;;;;;;;5036477;28;45832;-65
2022/05/16 14:03:34;;;;;;;;;1.00;1.00;;;;;;;;5030265;28;46190;-65
2022/05/16 14:06:01;;;;;;;;;2.00;1.00;;;;;;;;5041471;28;45554;-65
2022/05/16 14:08:43;;;;;;;;;0.25;0.25;;;;;;;;5029622;28;45623;-64
2022/05/16 14:11:17;;;;;;;;;2.00;1.00;;;;;;;;5043342;28;45239;-63
2022/05/16 14:13:44;;;;;;;;;1.00;1.00;;;;;;;;5035911;28;45661;-65
2022/05/16 14:16:09;;;;;;;;;1.75;1.25;;;;;;;;5043762;28;45396;-65
2022/05/16 14:18:43;;;;;;;;;0.00;0.00;;;;;;;;5034881;28;45489;-67
2022/05/16 14:21:17;;;;;;;;;1.00;1.00;;;;;;;;5036446;28;45461;-64
2022/05/16 14:23:48;;;;;;;;;1.00;1.00;;;;;;;;5043492;28;46723;-66
2022/05/16 14:26:18;;;;;;;;;1.00;1.00;;;;;;;;5034649;28;45463;-66
2022/05/16 14:28:45;;;;;;;;;2.25;2.25;;;;;;;;5043785;28;45486;-67
2022/05/16 14:31:24;;;;;;;;;1.00;1.00;;;;;;;;5038858;28;45637;-65
2022/05/16 14:33:55;;;;;;;;;3.25;2.00;;;;;;;;5036494;28;46702;-66
2022/05/16 14:36:30;;;;;;;;;1.00;1.00;;;;;;;;5037523;28;45330;-65
2022/05/16 14:39:02;;;;;;;;;0.50;0.50;;;;;;;;5034496;28;45502;-66
2022/05/16 14:41:27;;;;;;;;;1.75;1.75;;;;;;;;5023228;28;45575;-65
2022/05/16 14:43:56;;;;;;;;;1.00;1.00;;;;;;;;5033921;28;45420;-65
2022/05/16 14:49:05;;;;;;;;;2.25;2.25;;;;;;;;5037539;28;45545;-65
2022/05/16 14:51:32;;;;;;;;;1.00;1.00;;;;;;;;5037387;28;45543;-65
2022/05/16 14:53:57;;;;;;;;;1.00;1.00;;;;;;;;5039084;28;47935;-65
2022/05/16 14:56:22;;;;;;;;;0.75;0.75;;;;;;;;5031529;28;45528;-65
2022/05/16 14:58:49;;;;;;;;;1.00;1.00;;;;;;;;5057511;28;45403;-65
2022/05/16 15:04:05;;;;;;;;;0.00;0.00;;;;;;;;4983339;28;45813;-64
2022/05/16 15:06:38;;;;;;;;;0.75;0.75;;;;;;;;4958016;28;45666;-65
2022/05/16 15:09:05;;;;;;;;;0.75;0.50;;;;;;;;4965050;28;45474;-64
2022/05/16 15:11:33;;;;;;;;;1.00;1.00;;;;;;;;4988275;28;45387;-65
2022/05/16 15:13:58;;;;;;;;;1.00;1.00;;;;;;;;4975699;28;46964;-65
2022/05/16 15:16:23;;;;;;;;;0.00;0.00;;;;;;;;4983559;28;45560;-64
2022/05/16 15:18:49;;;;;;;;;0.25;0.25;;;;;;;;4978538;28;45472;-65
2022/05/16 15:21:17;;;;;;;;;0.75;0.75;;;;;;;;4980221;28;45590;-65
2022/05/16 15:23:43;;;;;;;;;2.00;1.00;;;;;;;;4986232;28;46605;-65
2022/05/16 15:26:09;;;;;;;;;0.00;0.00;;;;;;;;4977571;28;45579;-65
2022/05/16 15:28:35;;;;;;;;;1.00;1.00;;;;;;;;4984112;28;45766;-64